Time;durP1;ratioP1;P1;durP2;ratioP2;P2;SDS_P1;SDS_P2;PMS_P1;PMS_P2;Temp;Humidity;BMP_temperature;BMP_pressure;BME280_temperature;BME280_humidity;BME280_pressure;Samples;Min_cycle;Max_cycle;Signal;HPM_P1;HPM_P2
2021/12/31 00:01:35;;;;;;;16.27;2.95;;;;;;;;;;4994747;28;20050;-66
2021/12/31 00:04:02;;;;;;;16.23;2.95;;;;;;;;;;4993413;28;20085;-66
2021/12/31 00:06:29;;;;;;;10.85;2.75;;;;;;;;;;4980577;28;20491;-66
2021/12/31 00:08:55;;;;;;;14.05;3.30;;;;;;;;;;4993567;28;20065;-66
2021/12/31 00:11:21;;;;;;;11.70;2.65;;;;;;;;;;4995060;28;20120;-67
2021/12/31 00:13:48;;;;;;;15.50;3.47;;;;;;;;;;4994390;28;20589;-67
2021/12/31 00:16:14;;;;;;;7.82;3.00;;;;;;;;;;4994969;28;20054;-67
2021/12/31 00:18:41;;;;;;;15.80;3.08;;;;;;;;;;4994671;28;20142;-67
2021/12/31 00:21:07;;;;;;;10.93;2.78;;;;;;;;;;4994529;28;20054;-67
2021/12/31 00:23:34;;;;;;;15.07;2.72;;;;;;;;;;4994664;28;20086;-67
2021/12/31 00:26:00;;;;;;;15.18;3.25;;;;;;;;;;4994716;28;20050;-67
2021/12/31 00:28:27;;;;;;;13.07;3.42;;;;;;;;;;4994774;28;20058;-67
2021/12/31 00:30:55;;;;;;;13.70;3.85;;;;;;;;;;4994698;28;20050;-67
2021/12/31 00:33:22;;;;;;;11.40;2.40;;;;;;;;;;4994435;28;20042;-67
2021/12/31 00:35:49;;;;;;;11.57;2.83;;;;;;;;;;4994404;28;20458;-67
2021/12/31 00:38:16;;;;;;;13.60;2.83;;;;;;;;;;4993325;28;20077;-67
2021/12/31 00:40:43;;;;;;;14.07;3.03;;;;;;;;;;4994305;28;20077;-67
2021/12/31 00:43:12;;;;;;;11.87;3.53;;;;;;;;;;4994407;28;20129;-67
2021/12/31 00:45:40;;;;;;;10.40;2.72;;;;;;;;;;4994132;28;20498;-67
2021/12/31 00:48:08;;;;;;;13.90;3.88;;;;;;;;;;4994058;28;20077;-66
2021/12/31 00:50:35;;;;;;;13.13;3.03;;;;;;;;;;4994096;28;20523;-67
2021/12/31 00:53:02;;;;;;;16.87;4.43;;;;;;;;;;4994221;28;20054;-67
2021/12/31 00:55:28;;;;;;;9.82;2.63;;;;;;;;;;4994276;28;20054;-67
2021/12/31 00:57:55;;;;;;;7.18;2.20;;;;;;;;;;4994277;28;20105;-67
2021/12/31 01:00:23;;;;;;;12.50;2.95;;;;;;;;;;4994174;28;20053;-67
2021/12/31 01:02:50;;;;;;;12.50;3.17;;;;;;;;;;4993495;28;20046;-67
2021/12/31 01:05:17;;;;;;;16.58;2.90;;;;;;;;;;4993685;28;20413;-67
2021/12/31 01:07:44;;;;;;;13.15;3.30;;;;;;;;;;4993727;28;20487;-67
2021/12/31 01:10:14;;;;;;;12.38;2.55;;;;;;;;;;4993555;28;20038;-67
2021/12/31 01:12:41;;;;;;;13.20;3.05;;;;;;;;;;4993929;28;20117;-66
2021/12/31 01:15:12;;;;;;;16.07;3.47;;;;;;;;;;4993484;28;20112;-67
2021/12/31 01:18:27;;;;;;;13.73;2.45;;;;;;;;;;4993731;28;20117;-67
2021/12/31 01:20:28;;;;;;;13.07;2.85;;;;;;;;;;4979589;28;20121;-66
2021/12/31 01:22:55;;;;;;;15.85;3.28;;;;;;;;;;4993328;28;20557;-67
2021/12/31 01:25:21;;;;;;;10.25;2.60;;;;;;;;;;4993564;28;20463;-66
2021/12/31 01:27:48;;;;;;;12.32;2.80;;;;;;;;;;4993343;28;20568;-66
2021/12/31 01:30:14;;;;;;;10.32;2.75;;;;;;;;;;5008271;28;20061;-67
2021/12/31 01:32:42;;;;;;;12.25;3.25;;;;;;;;;;4993753;28;20112;-67
2021/12/31 01:35:11;;;;;;;10.40;3.45;;;;;;;;;;4993192;28;20085;-67
2021/12/31 01:37:38;;;;;;;16.77;3.22;;;;;;;;;;4993312;28;20102;-66
2021/12/31 01:40:05;;;;;;;9.45;2.88;;;;;;;;;;4993089;28;20458;-67
2021/12/31 01:42:33;;;;;;;11.05;2.92;;;;;;;;;;4993301;28;20117;-67
2021/12/31 01:45:09;;;;;;;12.13;3.15;;;;;;;;;;4993267;28;20096;-67
2021/12/31 01:50:21;;;;;;;13.35;3.25;;;;;;;;;;4993291;28;20053;-66
2021/12/31 01:52:47;;;;;;;10.95;3.33;;;;;;;;;;4993034;28;20054;-66
2021/12/31 01:55:14;;;;;;;11.95;3.65;;;;;;;;;;4992931;28;20054;-66
2021/12/31 01:57:41;;;;;;;18.53;4.30;;;;;;;;;;4992824;28;20101;-67
2021/12/31 02:00:09;;;;;;;13.45;3.45;;;;;;;;;;4992919;28;20116;-67
2021/12/31 02:02:36;;;;;;;13.40;3.67;;;;;;;;;;4992556;28;20565;-67
2021/12/31 02:05:03;;;;;;;11.37;3.17;;;;;;;;;;4992933;28;20064;-67
2021/12/31 02:07:30;;;;;;;9.82;3.08;;;;;;;;;;4992841;28;20046;-67
2021/12/31 02:09:57;;;;;;;16.92;3.67;;;;;;;;;;4992596;28;20046;-66
2021/12/31 02:12:23;;;;;;;14.27;3.42;;;;;;;;;;4992619;28;20058;-67
2021/12/31 02:14:51;;;;;;;10.75;4.03;;;;;;;;;;4991996;28;20061;-67
2021/12/31 02:17:19;;;;;;;16.70;3.65;;;;;;;;;;4992718;28;20108;-67
2021/12/31 02:19:55;;;;;;;17.35;3.90;;;;;;;;;;4992557;28;20109;-67
2021/12/31 02:22:26;;;;;;;16.17;3.85;;;;;;;;;;4992599;28;20046;-67
2021/12/31 02:24:55;;;;;;;16.17;3.42;;;;;;;;;;4992747;28;20089;-67
2021/12/31 02:27:23;;;;;;;17.15;3.80;;;;;;;;;;4992729;28;20100;-67
2021/12/31 02:29:49;;;;;;;;;;;;;;;;;;4993049;28;20051;-67
2021/12/31 02:32:16;;;;;;;12.82;3.67;;;;;;;;;;4992301;28;19929;-67
2021/12/31 02:34:43;;;;;;;17.33;4.60;;;;;;;;;;4992286;28;20050;-67
2021/12/31 02:37:10;;;;;;;14.63;3.50;;;;;;;;;;4992205;28;20054;-67
2021/12/31 02:39:39;;;;;;;14.55;3.20;;;;;;;;;;4992205;28;20109;-67
2021/12/31 02:42:06;;;;;;;10.63;3.53;;;;;;;;;;4992087;28;20050;-67
2021/12/31 02:44:32;;;;;;;15.23;3.67;;;;;;;;;;4992150;28;20502;-67
2021/12/31 02:47:02;;;;;;;17.67;4.15;;;;;;;;;;4992455;28;20054;-67
2021/12/31 02:49:34;;;;;;;16.40;3.55;;;;;;;;;;4992154;28;20158;-67
2021/12/31 02:52:02;;;;;;;13.68;4.00;;;;;;;;;;4992159;28;20105;-67
2021/12/31 02:54:30;;;;;;;15.05;2.92;;;;;;;;;;4992378;28;20109;-67
2021/12/31 02:56:56;;;;;;;13.20;3.42;;;;;;;;;;4992384;28;20046;-67
2021/12/31 02:59:23;;;;;;;17.95;3.45;;;;;;;;;;4991037;28;20458;-67
2021/12/31 03:01:50;;;;;;;18.08;3.03;;;;;;;;;;4991990;28;20046;-67
2021/12/31 03:04:17;;;;;;;15.25;3.80;;;;;;;;;;4992514;28;20053;-67
2021/12/31 03:06:46;;;;;;;15.13;3.47;;;;;;;;;;4992207;28;20046;-67
2021/12/31 03:09:13;;;;;;;18.02;4.15;;;;;;;;;;4992388;28;20050;-67
2021/12/31 03:11:41;;;;;;;11.52;3.25;;;;;;;;;;4992008;28;20046;-67
2021/12/31 03:14:08;;;;;;;19.40;3.92;;;;;;;;;;4992114;28;20047;-67
2021/12/31 03:16:35;;;;;;;12.80;3.67;;;;;;;;;;4991752;28;20055;-67
2021/12/31 03:19:02;;;;;;;10.30;3.45;;;;;;;;;;4992183;28;20097;-67
2021/12/31 03:21:30;;;;;;;12.43;4.00;;;;;;;;;;4991887;28;20058;-67
2021/12/31 03:23:58;;;;;;;14.00;4.78;;;;;;;;;;4991985;28;20126;-67
2021/12/31 03:26:24;;;;;;;18.15;4.25;;;;;;;;;;4992519;28;20097;-68
2021/12/31 03:28:51;;;;;;;13.45;5.25;;;;;;;;;;4995461;28;20391;-67
2021/12/31 03:31:17;;;;;;;12.90;4.28;;;;;;;;;;4995772;28;20445;-69
2021/12/31 03:33:44;;;;;;;17.67;4.80;;;;;;;;;;4994189;28;20510;-67
2021/12/31 03:36:11;;;;;;;22.05;5.75;;;;;;;;;;4995783;28;20104;-67
2021/12/31 03:38:37;;;;;;;18.33;5.53;;;;;;;;;;4995384;28;20058;-67
2021/12/31 03:41:04;;;;;;;17.50;4.45;;;;;;;;;;4995264;28;20054;-67
2021/12/31 03:43:30;;;;;;;16.70;4.32;;;;;;;;;;4995354;28;20050;-67
2021/12/31 03:45:56;;;;;;;15.32;4.60;;;;;;;;;;4995256;28;20101;-67
2021/12/31 03:48:23;;;;;;;15.00;4.78;;;;;;;;;;4995394;28;20053;-67
2021/12/31 03:50:50;;;;;;;18.65;4.63;;;;;;;;;;4995430;28;20050;-66
2021/12/31 03:53:17;;;;;;;17.75;4.40;;;;;;;;;;4995501;28;20054;-67
2021/12/31 03:55:43;;;;;;;16.77;4.80;;;;;;;;;;4995363;28;20058;-67
2021/12/31 03:58:10;;;;;;;22.80;4.82;;;;;;;;;;4995078;28;20054;-67
2021/12/31 04:00:36;;;;;;;21.98;5.47;;;;;;;;;;4995293;28;20104;-67
2021/12/31 04:03:07;;;;;;;21.58;5.30;;;;;;;;;;4993548;28;20046;-67
2021/12/31 04:05:34;;;;;;;22.55;5.40;;;;;;;;;;4995208;28;20077;-67
2021/12/31 04:08:01;;;;;;;18.60;5.43;;;;;;;;;;4994997;28;20105;-67
2021/12/31 04:10:28;;;;;;;17.08;5.22;;;;;;;;;;4993625;28;20092;-67
2021/12/31 04:12:55;;;;;;;16.38;5.78;;;;;;;;;;4994850;28;20050;-67
2021/12/31 04:15:22;;;;;;;15.95;5.07;;;;;;;;;;4994680;28;20057;-67
2021/12/31 04:17:48;;;;;;;20.52;5.95;;;;;;;;;;4994651;28;20461;-68
2021/12/31 04:20:32;;;;;;;21.13;5.63;;;;;;;;;;4994630;28;20549;-67
2021/12/31 04:23:01;;;;;;;20.58;6.05;;;;;;;;;;4994686;28;20058;-67
2021/12/31 04:25:28;;;;;;;18.70;5.03;;;;;;;;;;4994754;28;20461;-68
2021/12/31 04:27:54;;;;;;;13.35;4.70;;;;;;;;;;4994431;28;20054;-69
2021/12/31 04:30:21;;;;;;;18.48;5.13;;;;;;;;;;4994686;28;20077;-69
2021/12/31 04:32:47;;;;;;;17.63;4.80;;;;;;;;;;4994880;28;20479;-70
2021/12/31 04:35:14;;;;;;;14.50;4.93;;;;;;;;;;4994311;28;20561;-68
2021/12/31 04:37:43;;;;;;;19.83;5.10;;;;;;;;;;4993657;28;20077;-68
2021/12/31 04:40:10;;;;;;;13.63;5.10;;;;;;;;;;4993776;28;20197;-70
2021/12/31 04:42:41;;;;;;;15.20;4.10;;;;;;;;;;4994439;28;20105;-68
2021/12/31 04:45:12;;;;;;;16.40;4.53;;;;;;;;;;4994499;28;20103;-70
2021/12/31 04:47:39;;;;;;;15.05;4.22;;;;;;;;;;4994332;28;20050;-70
2021/12/31 04:50:05;;;;;;;15.67;4.13;;;;;;;;;;4994232;28;20050;-67
2021/12/31 04:52:32;;;;;;;14.52;4.57;;;;;;;;;;4994086;28;20104;-66
2021/12/31 04:54:59;;;;;;;11.20;3.72;;;;;;;;;;4993872;28;20065;-66
2021/12/31 04:57:26;;;;;;;11.90;3.70;;;;;;;;;;4994213;28;20101;-66
2021/12/31 04:59:53;;;;;;;9.65;3.40;;;;;;;;;;4994157;28;20109;-67
2021/12/31 05:02:19;;;;;;;13.82;4.03;;;;;;;;;;4993988;28;20450;-66
2021/12/31 05:04:46;;;;;;;12.23;3.50;;;;;;;;;;4993786;28;20069;-67
2021/12/31 05:07:13;;;;;;;7.47;3.50;;;;;;;;;;4993985;28;20054;-67
2021/12/31 05:09:39;;;;;;;13.90;3.78;;;;;;;;;;4993634;28;20458;-68
2021/12/31 05:12:06;;;;;;;9.75;3.30;;;;;;;;;;4993755;28;20042;-67
2021/12/31 05:14:33;;;;;;;12.60;3.43;;;;;;;;;;4992264;28;20050;-66
2021/12/31 05:16:59;;;;;;;16.35;4.05;;;;;;;;;;4993518;28;20105;-66
2021/12/31 05:19:26;;;;;;;13.32;4.28;;;;;;;;;;4993833;28;20050;-66
2021/12/31 05:21:52;;;;;;;15.15;3.70;;;;;;;;;;4993552;28;20475;-66
2021/12/31 05:24:18;;;;;;;11.02;3.35;;;;;;;;;;4993627;28;20458;-66
2021/12/31 05:26:45;;;;;;;13.70;3.75;;;;;;;;;;4993493;28;20054;-66
2021/12/31 05:29:11;;;;;;;9.02;3.75;;;;;;;;;;4993667;28;20042;-66
2021/12/31 05:31:38;;;;;;;15.77;4.97;;;;;;;;;;4993416;28;20047;-66
2021/12/31 05:34:04;;;;;;;12.82;3.53;;;;;;;;;;4993617;28;20050;-66
2021/12/31 05:36:31;;;;;;;12.85;3.72;;;;;;;;;;4993252;28;20050;-66
2021/12/31 05:38:57;;;;;;;17.70;4.00;;;;;;;;;;5008049;28;20050;-66
2021/12/31 05:41:24;;;;;;;12.40;3.90;;;;;;;;;;4993095;28;20054;-66
2021/12/31 05:43:50;;;;;;;8.85;3.58;;;;;;;;;;4993109;28;20109;-65
2021/12/31 05:46:17;;;;;;;12.30;3.15;;;;;;;;;;4993284;28;20067;-66
2021/12/31 05:48:43;;;;;;;15.98;4.97;;;;;;;;;;4993003;28;20057;-68
2021/12/31 05:51:11;;;;;;;15.07;4.15;;;;;;;;;;4991285;28;20157;-68
2021/12/31 05:53:37;;;;;;;11.35;3.60;;;;;;;;;;4993197;28;20453;-68
2021/12/31 05:56:04;;;;;;;9.13;3.45;;;;;;;;;;4993128;28;20050;-68
2021/12/31 05:58:30;;;;;;;7.85;2.53;;;;;;;;;;4991931;28;20444;-68
2021/12/31 06:00:57;;;;;;;7.30;2.35;;;;;;;;;;4993083;28;20050;-68
2021/12/31 06:03:23;;;;;;;4.90;2.20;;;;;;;;;;4992928;28;20120;-67
2021/12/31 06:05:50;;;;;;;6.82;2.25;;;;;;;;;;5007913;28;20109;-67
2021/12/31 06:08:17;;;;;;;8.60;2.63;;;;;;;;;;4992998;28;20042;-67
2021/12/31 06:10:43;;;;;;;4.82;2.10;;;;;;;;;;4992929;28;20054;-67
2021/12/31 06:13:10;;;;;;;8.45;2.17;;;;;;;;;;4992556;28;20113;-68
2021/12/31 06:15:37;;;;;;;7.25;2.33;;;;;;;;;;4992622;28;20084;-67
2021/12/31 06:18:04;;;;;;;5.40;1.90;;;;;;;;;;4992476;28;20572;-67
2021/12/31 06:20:31;;;;;;;6.30;2.20;;;;;;;;;;4992756;28;20100;-67
2021/12/31 06:23:00;;;;;;;5.15;1.88;;;;;;;;;;4992702;28;20461;-67
2021/12/31 06:25:28;;;;;;;3.97;1.85;;;;;;;;;;5007493;28;20054;-67
2021/12/31 06:27:54;;;;;;;4.03;1.70;;;;;;;;;;4992722;28;20054;-66
2021/12/31 06:30:21;;;;;;;4.32;1.70;;;;;;;;;;4992298;28;20450;-65
2021/12/31 06:32:47;;;;;;;4.38;1.60;;;;;;;;;;4992499;28;20388;-65
2021/12/31 06:35:14;;;;;;;7.88;1.95;;;;;;;;;;4992486;28;20054;-65
2021/12/31 06:37:40;;;;;;;4.88;1.75;;;;;;;;;;4992266;28;20104;-65
2021/12/31 06:40:07;;;;;;;6.93;1.77;;;;;;;;;;5007484;28;20104;-65
2021/12/31 06:42:34;;;;;;;5.45;1.75;;;;;;;;;;4992322;28;20057;-65
2021/12/31 06:45:01;;;;;;;2.67;1.45;;;;;;;;;;4992496;28;20046;-65
2021/12/31 06:47:27;;;;;;;7.05;1.92;;;;;;;;;;4992068;28;20526;-65
2021/12/31 06:49:54;;;;;;;6.18;1.70;;;;;;;;;;5007465;28;20461;-65
2021/12/31 06:52:20;;;;;;;4.03;2.28;;;;;;;;;;4992103;28;20109;-65
2021/12/31 06:54:47;;;;;;;5.35;1.67;;;;;;;;;;4992153;28;20495;-65
2021/12/31 06:57:13;;;;;;;3.80;1.52;;;;;;;;;;4992199;28;20051;-65
2021/12/31 06:59:40;;;;;;;4.85;1.80;;;;;;;;;;4992096;28;20108;-65
2021/12/31 07:02:06;;;;;;;5.00;1.77;;;;;;;;;;4993674;28;20062;-64
2021/12/31 07:04:33;;;;;;;3.17;1.80;;;;;;;;;;4995898;28;20097;-65
2021/12/31 07:07:00;;;;;;;4.80;1.67;;;;;;;;;;4996179;28;20058;-64
2021/12/31 07:09:28;;;;;;;3.45;1.73;;;;;;;;;;4995860;28;20077;-64
2021/12/31 07:11:54;;;;;;;5.30;2.00;;;;;;;;;;4995907;28;20046;-64
2021/12/31 07:14:21;;;;;;;4.22;1.63;;;;;;;;;;4996179;28;20455;-64
2021/12/31 07:16:48;;;;;;;3.45;1.40;;;;;;;;;;4995561;28;20060;-64
2021/12/31 07:19:15;;;;;;;3.55;1.58;;;;;;;;;;5010745;28;20054;-64
2021/12/31 07:21:41;;;;;;;2.97;1.30;;;;;;;;;;4995877;28;20101;-64
2021/12/31 07:24:07;;;;;;;2.30;1.30;;;;;;;;;;4995783;28;20050;-65
2021/12/31 07:26:34;;;;;;;2.28;1.40;;;;;;;;;;4995800;28;20050;-64
2021/12/31 07:29:00;;;;;;;3.25;1.55;;;;;;;;;;5010856;28;20042;-65
2021/12/31 07:31:27;;;;;;;3.20;1.50;;;;;;;;;;4995749;28;20066;-64
2021/12/31 07:33:53;;;;;;;3.00;2.03;;;;;;;;;;4995436;28;20085;-64
2021/12/31 07:36:20;;;;;;;1.95;1.23;;;;;;;;;;4995658;28;20527;-64
2021/12/31 07:38:55;;;;;;;1.52;1.30;;;;;;;;;;4995411;28;20640;-64
2021/12/31 07:41:21;;;;;;;2.47;1.83;;;;;;;;;;4995642;28;20050;-64
2021/12/31 07:43:48;;;;;;;2.15;1.80;;;;;;;;;;4995457;28;20042;-65
2021/12/31 07:46:14;;;;;;;2.58;2.10;;;;;;;;;;5010471;28;20050;-64
2021/12/31 07:48:41;;;;;;;5.60;1.90;;;;;;;;;;4995158;28;20050;-64
2021/12/31 07:51:07;;;;;;;2.90;1.55;;;;;;;;;;4995453;28;20042;-64
2021/12/31 07:53:34;;;;;;;4.10;1.52;;;;;;;;;;4995266;28;20081;-64
2021/12/31 07:56:00;;;;;;;2.15;1.73;;;;;;;;;;4995041;28;20050;-64
2021/12/31 07:58:27;;;;;;;4.18;1.60;;;;;;;;;;4995058;28;20058;-64
2021/12/31 08:00:54;;;;;;;3.10;1.90;;;;;;;;;;4995322;28;20462;-64
2021/12/31 08:03:21;;;;;;;3.53;1.55;;;;;;;;;;4994936;28;20046;-64
2021/12/31 08:05:47;;;;;;;2.67;1.90;;;;;;;;;;4994851;28;20461;-64
2021/12/31 08:08:14;;;;;;;2.63;1.63;;;;;;;;;;4995124;28;20454;-64
2021/12/31 08:10:40;;;;;;;3.35;1.85;;;;;;;;;;4995155;28;20101;-64
2021/12/31 08:13:21;;;;;;;3.22;1.88;;;;;;;;;;4994504;28;20046;-64
2021/12/31 08:15:47;;;;;;;3.10;1.92;;;;;;;;;;4994737;28;20066;-64
2021/12/31 08:18:14;;;;;;;6.82;1.67;;;;;;;;;;4994998;28;20399;-64
2021/12/31 08:20:41;;;;;;;4.87;1.70;;;;;;;;;;4994958;28;20068;-64
2021/12/31 08:23:09;;;;;;;7.07;2.13;;;;;;;;;;4994791;28;20101;-64
2021/12/31 08:25:39;;;;;;;5.25;1.80;;;;;;;;;;4988205;28;20558;-65
2021/12/31 08:28:05;;;;;;;6.72;1.85;;;;;;;;;;4990446;28;20050;-64
2021/12/31 08:30:32;;;;;;;4.53;1.80;;;;;;;;;;4994848;28;20061;-64
2021/12/31 08:32:59;;;;;;;4.13;1.92;;;;;;;;;;4994572;28;20046;-64
2021/12/31 08:35:25;;;;;;;6.20;2.30;;;;;;;;;;4980647;28;20054;-64
2021/12/31 08:37:52;;;;;;;4.43;1.70;;;;;;;;;;4980479;28;20057;-64
2021/12/31 08:40:20;;;;;;;6.43;1.77;;;;;;;;;;4991764;28;20101;-64
2021/12/31 08:42:46;;;;;;;;;;;;;;;;;;4994981;28;20042;-64
2021/12/31 08:45:13;;;;;;;5.95;1.85;;;;;;;;;;4994306;28;19925;-64
2021/12/31 08:47:39;;;;;;;7.27;2.40;;;;;;;;;;4994461;28;20085;-64
2021/12/31 08:50:06;;;;;;;5.18;1.95;;;;;;;;;;4994380;28;20050;-64
2021/12/31 08:52:33;;;;;;;8.82;1.98;;;;;;;;;;4974894;28;20495;-64
2021/12/31 08:54:59;;;;;;;6.40;2.15;;;;;;;;;;4992732;28;20054;-64
2021/12/31 08:57:26;;;;;;;5.88;2.03;;;;;;;;;;4993971;28;20050;-64
2021/12/31 08:59:52;;;;;;;5.28;1.90;;;;;;;;;;4993815;28;20058;-64
2021/12/31 09:02:18;;;;;;;4.70;1.85;;;;;;;;;;4993895;28;20093;-64
2021/12/31 09:04:46;;;;;;;6.38;2.13;;;;;;;;;;4993712;28;20499;-64
2021/12/31 09:07:12;;;;;;;9.07;2.20;;;;;;;;;;4993746;28;20054;-64
2021/12/31 09:09:39;;;;;;;8.25;2.40;;;;;;;;;;5008796;28;20462;-63
2021/12/31 09:12:05;;;;;;;3.55;1.73;;;;;;;;;;4993817;28;20450;-64
2021/12/31 09:14:32;;;;;;;5.03;2.15;;;;;;;;;;4993520;28;20050;-64
2021/12/31 09:17:00;;;;;;;5.65;1.88;;;;;;;;;;4992971;28;20458;-64
2021/12/31 09:19:27;;;;;;;7.57;2.08;;;;;;;;;;4993093;28;20108;-64
2021/12/31 09:21:55;;;;;;;5.40;2.28;;;;;;;;;;4986876;28;20124;-64
2021/12/31 09:24:22;;;;;;;8.98;2.10;;;;;;;;;;4973113;28;20475;-64
2021/12/31 09:26:49;;;;;;;8.80;1.98;;;;;;;;;;4974863;28;20138;-64
2021/12/31 09:29:18;;;;;;;8.20;1.90;;;;;;;;;;4990337;28;20073;-64
2021/12/31 09:31:45;;;;;;;5.60;1.90;;;;;;;;;;4993117;28;20065;-64
2021/12/31 09:34:11;;;;;;;9.05;2.33;;;;;;;;;;4993075;28;20043;-64
2021/12/31 09:36:38;;;;;;;8.15;2.72;;;;;;;;;;4992835;28;20062;-64
2021/12/31 09:39:04;;;;;;;9.63;2.00;;;;;;;;;;4993020;28;20054;-64
2021/12/31 09:41:31;;;;;;;14.38;2.80;;;;;;;;;;4993262;28;20058;-64
2021/12/31 09:43:57;;;;;;;6.63;2.13;;;;;;;;;;4993300;28;20379;-64
2021/12/31 09:46:24;;;;;;;3.97;2.15;;;;;;;;;;4993371;28;20071;-64
2021/12/31 09:48:51;;;;;;;12.02;2.38;;;;;;;;;;4992529;28;21209;-65
2021/12/31 09:51:18;;;;;;;8.52;2.20;;;;;;;;;;4980542;28;20450;-64
2021/12/31 09:53:44;;;;;;;6.85;1.73;;;;;;;;;;4989383;28;20120;-65
2021/12/31 09:56:13;;;;;;;6.15;1.90;;;;;;;;;;4991760;28;20062;-63
2021/12/31 09:58:40;;;;;;;6.82;1.88;;;;;;;;;;4992369;28;20174;-64
2021/12/31 10:01:08;;;;;;;7.57;1.52;;;;;;;;;;4992762;28;20643;-63
2021/12/31 10:03:36;;;;;;;9.68;2.30;;;;;;;;;;4992662;28;20054;-64
2021/12/31 10:06:05;;;;;;;8.43;2.08;;;;;;;;;;4992916;28;20076;-65
2021/12/31 10:08:38;;;;;;;8.82;3.60;;;;;;;;;;4992835;28;20046;-65
2021/12/31 10:11:07;;;;;;;8.10;3.28;;;;;;;;;;4992683;28;20054;-65
2021/12/31 10:13:40;;;;;;;9.80;2.55;;;;;;;;;;4992418;28;20077;-65
2021/12/31 10:16:19;;;;;;;10.15;2.53;;;;;;;;;;4992398;28;20054;-64
2021/12/31 10:18:46;;;;;;;12.98;2.60;;;;;;;;;;4992814;28;20046;-65
2021/12/31 10:21:12;;;;;;;10.35;2.53;;;;;;;;;;4992456;28;20046;-65
2021/12/31 10:23:39;;;;;;;8.43;2.60;;;;;;;;;;4992239;28;20050;-64
2021/12/31 10:26:06;;;;;;;7.17;2.43;;;;;;;;;;4992656;28;20050;-64
2021/12/31 10:28:33;;;;;;;9.98;3.47;;;;;;;;;;4992474;28;20116;-65
2021/12/31 10:31:09;;;;;;;9.95;2.67;;;;;;;;;;4992241;28;20054;-65
2021/12/31 10:33:41;;;;;;;10.73;3.63;;;;;;;;;;4992108;28;20510;-65
2021/12/31 10:36:07;;;;;;;9.88;3.10;;;;;;;;;;4992443;28;20446;-65
2021/12/31 10:38:37;;;;;;;12.52;3.00;;;;;;;;;;4991128;28;20093;-65
2021/12/31 10:41:05;;;;;;;11.38;3.00;;;;;;;;;;4992353;28;20560;-64
2021/12/31 10:43:31;;;;;;;13.30;3.45;;;;;;;;;;4979526;28;20055;-65
2021/12/31 10:45:58;;;;;;;11.80;3.90;;;;;;;;;;4972340;28;20046;-65
2021/12/31 10:49:06;;;;;;;11.52;3.00;;;;;;;;;;4980348;28;20070;-64
2021/12/31 10:51:39;;;;;;;8.65;3.00;;;;;;;;;;4971275;28;20058;-66
2021/12/31 10:54:47;;;;;;;10.75;3.47;;;;;;;;;;4972247;28;20093;-66
2021/12/31 10:57:32;;;;;;;15.27;3.55;;;;;;;;;;4991172;28;20126;-65
2021/12/31 11:00:01;;;;;;;12.00;3.40;;;;;;;;;;4991265;28;20046;-66
2021/12/31 11:02:27;;;;;;;17.20;3.72;;;;;;;;;;4991786;28;20134;-66
2021/12/31 11:04:54;;;;;;;13.52;3.15;;;;;;;;;;4991389;28;20050;-65
2021/12/31 11:07:20;;;;;;;10.02;2.90;;;;;;;;;;4991849;28;20046;-66
2021/12/31 11:09:47;;;;;;;10.80;2.92;;;;;;;;;;4991537;28;20042;-65
2021/12/31 11:12:14;;;;;;;10.82;2.75;;;;;;;;;;4991397;28;20050;-65
2021/12/31 11:14:41;;;;;;;7.90;2.63;;;;;;;;;;4994397;28;20467;-68
2021/12/31 11:17:07;;;;;;;7.88;2.78;;;;;;;;;;4991453;28;20549;-67
2021/12/31 11:19:35;;;;;;;10.77;3.30;;;;;;;;;;4991774;28;20061;-69
2021/12/31 11:22:02;;;;;;;11.55;3.38;;;;;;;;;;4991505;28;20113;-67
2021/12/31 11:24:30;;;;;;;6.45;2.53;;;;;;;;;;4991727;28;20054;-65
2021/12/31 11:27:17;;;;;;;11.20;2.40;;;;;;;;;;4992038;28;20046;-65
2021/12/31 11:29:43;;;;;;;11.27;2.53;;;;;;;;;;4991746;28;20112;-66
2021/12/31 11:32:10;;;;;;;7.15;2.50;;;;;;;;;;4992006;28;20120;-69
2021/12/31 11:34:37;;;;;;;6.75;2.75;;;;;;;;;;4991704;28;20105;-66
2021/12/31 11:37:03;;;;;;;7.57;2.67;;;;;;;;;;4991409;28;20111;-67
2021/12/31 11:39:32;;;;;;;12.48;3.17;;;;;;;;;;4991579;28;20505;-68
2021/12/31 11:42:00;;;;;;;11.32;3.10;;;;;;;;;;4991977;28;20054;-71
2021/12/31 11:44:27;;;;;;;11.77;3.38;;;;;;;;;;4978410;28;20098;-66
2021/12/31 11:47:09;;;;;;;9.68;3.17;;;;;;;;;;4988251;28;20042;-66
2021/12/31 11:49:36;;;;;;;11.55;2.38;;;;;;;;;;4995043;28;20128;-67
2021/12/31 11:52:04;;;;;;;11.98;2.60;;;;;;;;;;4991221;28;20101;-68
2021/12/31 11:54:32;;;;;;;8.02;2.25;;;;;;;;;;4982931;28;20108;-68
2021/12/31 11:56:59;;;;;;;9.57;2.55;;;;;;;;;;4994495;28;20066;-68
2021/12/31 11:59:26;;;;;;;;;;;;;;;;;;4995147;28;20046;-67
2021/12/31 12:01:54;;;;;;;10.73;2.75;;;;;;;;;;4991767;28;19926;-66
2021/12/31 12:04:22;;;;;;;6.60;2.72;;;;;;;;;;4974969;28;20047;-66
2021/12/31 12:06:50;;;;;;;9.88;2.88;;;;;;;;;;4981433;28;20100;-66
2021/12/31 12:09:17;;;;;;;6.97;2.40;;;;;;;;;;4994674;28;20046;-67
2021/12/31 12:12:16;;;;;;;9.90;4.07;;;;;;;;;;4994621;28;20053;-67
2021/12/31 12:14:43;;;;;;;7.68;2.45;;;;;;;;;;4990361;28;20058;-68
2021/12/31 12:17:13;;;;;;;8.60;3.05;;;;;;;;;;4994897;28;20149;-68
2021/12/31 12:19:45;;;;;;;8.18;3.03;;;;;;;;;;4994912;28;20054;-67
2021/12/31 12:22:25;;;;;;;8.60;2.85;;;;;;;;;;4994819;28;20526;-67
2021/12/31 12:24:52;;;;;;;9.32;2.03;;;;;;;;;;4994501;28;20054;-71
2021/12/31 12:27:21;;;;;;;10.30;2.80;;;;;;;;;;4994456;28;20046;-70
2021/12/31 12:29:48;;;;;;;6.88;1.90;;;;;;;;;;4994786;28;20050;-67
2021/12/31 12:32:16;;;;;;;8.48;1.92;;;;;;;;;;4994808;28;20054;-67
2021/12/31 12:34:43;;;;;;;7.22;2.70;;;;;;;;;;4994668;28;20054;-76
2021/12/31 12:37:10;;;;;;;8.05;2.63;;;;;;;;;;4990346;28;20047;-68
2021/12/31 12:39:37;;;;;;;8.95;2.25;;;;;;;;;;4984936;28;20104;-67
2021/12/31 12:42:07;;;;;;;8.45;2.50;;;;;;;;;;4994200;28;20466;-68
2021/12/31 12:44:33;;;;;;;8.10;2.28;;;;;;;;;;4994438;28;20051;-68
2021/12/31 12:47:00;;;;;;;7.25;2.25;;;;;;;;;;4994081;28;20565;-67
2021/12/31 12:49:27;;;;;;;11.73;2.75;;;;;;;;;;4994492;28;20050;-67
2021/12/31 12:51:56;;;;;;;12.13;2.08;;;;;;;;;;4994311;28;20050;-68
2021/12/31 12:54:23;;;;;;;7.93;2.13;;;;;;;;;;4993868;28;20454;-68
2021/12/31 12:56:51;;;;;;;10.50;2.03;;;;;;;;;;4993923;28;20053;-67
2021/12/31 12:59:21;;;;;;;10.25;2.40;;;;;;;;;;4992872;28;20129;-66
2021/12/31 13:01:49;;;;;;;9.48;2.10;;;;;;;;;;4994055;28;20054;-67
2021/12/31 13:04:15;;;;;;;;;;;;;;;;;;4994156;28;20498;-66
2021/12/31 13:07:02;;;;;;;8.60;2.40;;;;;;;;;;4993708;28;19930;-67
2021/12/31 13:09:32;;;;;;;7.77;1.90;;;;;;;;;;4993942;28;20055;-67
2021/12/31 13:12:02;;;;;;;13.52;2.28;;;;;;;;;;4992585;28;20278;-70
2021/12/31 13:14:36;;;;;;;10.50;2.20;;;;;;;;;;4993551;28;20046;-66
2021/12/31 13:17:03;;;;;;;9.48;1.95;;;;;;;;;;4993137;28;20464;-66
2021/12/31 13:19:33;;;;;;;10.50;2.38;;;;;;;;;;4993133;28;20061;-66
2021/12/31 13:22:01;;;;;;;7.18;2.03;;;;;;;;;;4993123;28;20046;-66
2021/12/31 13:24:28;;;;;;;10.13;2.00;;;;;;;;;;4987325;28;20067;-66
2021/12/31 13:26:57;;;;;;;8.63;2.63;;;;;;;;;;4975939;28;20069;-66
2021/12/31 13:29:34;;;;;;;8.15;1.85;;;;;;;;;;4973755;28;20050;-66
2021/12/31 13:32:15;;;;;;;13.13;2.90;;;;;;;;;;4991736;28;20050;-66
2021/12/31 13:34:43;;;;;;;11.82;2.25;;;;;;;;;;4993038;28;20383;-66
2021/12/31 13:37:31;;;;;;;11.48;2.58;;;;;;;;;;4993117;28;20096;-66
2021/12/31 13:40:03;;;;;;;8.68;2.05;;;;;;;;;;4992744;28;20092;-66
2021/12/31 13:42:30;;;;;;;13.48;2.58;;;;;;;;;;5004476;28;20454;-65
2021/12/31 13:44:57;;;;;;;8.02;2.17;;;;;;;;;;4983271;28;20046;-69
2021/12/31 13:47:25;;;;;;;11.18;2.53;;;;;;;;;;4993086;28;20051;-67
2021/12/31 13:49:53;;;;;;;7.72;1.92;;;;;;;;;;4993384;28;20050;-67
2021/12/31 13:52:21;;;;;;;13.20;2.35;;;;;;;;;;4993280;28;20050;-66
2021/12/31 13:54:48;;;;;;;13.80;3.00;;;;;;;;;;4992964;28;20462;-66
2021/12/31 13:57:21;;;;;;;11.65;2.42;;;;;;;;;;4993159;28;20054;-66
2021/12/31 13:59:48;;;;;;;8.43;2.17;;;;;;;;;;4993250;28;20058;-70
2021/12/31 14:02:19;;;;;;;10.63;2.80;;;;;;;;;;4993192;28;20054;-68
2021/12/31 14:04:56;;;;;;;10.23;3.08;;;;;;;;;;4992707;28;20050;-68
2021/12/31 14:07:32;;;;;;;10.75;2.47;;;;;;;;;;4992674;28;20050;-68
2021/12/31 14:09:59;;;;;;;13.68;2.80;;;;;;;;;;4993042;28;20042;-68
2021/12/31 14:12:47;;;;;;;9.32;2.60;;;;;;;;;;4991883;28;20054;-67
2021/12/31 14:15:15;;;;;;;12.73;2.97;;;;;;;;;;4992494;28;20384;-67
2021/12/31 14:17:41;;;;;;;12.05;2.40;;;;;;;;;;4992670;28;20104;-67
2021/12/31 14:20:08;;;;;;;11.37;3.83;;;;;;;;;;4992187;28;20081;-66
2021/12/31 14:22:35;;;;;;;13.83;3.63;;;;;;;;;;4992087;28;20154;-66
2021/12/31 14:25:04;;;;;;;13.18;3.45;;;;;;;;;;4991839;28;20545;-66
2021/12/31 14:27:31;;;;;;;18.25;4.15;;;;;;;;;;4992792;28;20046;-66
2021/12/31 14:29:57;;;;;;;16.55;4.32;;;;;;;;;;4992403;28;20453;-67
2021/12/31 14:32:24;;;;;;;15.80;3.92;;;;;;;;;;4992721;28;20046;-67
2021/12/31 14:34:52;;;;;;;19.35;4.55;;;;;;;;;;4992595;28;20046;-67
2021/12/31 14:37:18;;;;;;;17.98;4.68;;;;;;;;;;4992562;28;20050;-66
2021/12/31 14:39:53;;;;;;;16.05;3.70;;;;;;;;;;4992350;28;20050;-67
2021/12/31 14:42:21;;;;;;;18.75;4.43;;;;;;;;;;4992307;28;20097;-66
2021/12/31 14:44:48;;;;;;;;;;;;;;;;;;4992641;28;20499;-67
2021/12/31 14:47:14;;;;;;;25.80;4.70;;;;;;;;;;4990797;28;20342;-67